sensor_id;sensor_type;location;lat;lon;timestamp;temperature;humidity
5218;DHT22;26539;51.064;6.346;2023-05-18T00:00:19;10.50;99.90
5218;DHT22;26539;51.064;6.346;2023-05-18T00:02:45;10.50;99.90
5218;DHT22;26539;51.064;6.346;2023-05-18T00:05:12;10.50;99.90
5218;DHT22;26539;51.064;6.346;2023-05-18T00:07:38;10.40;99.90
5218;DHT22;26539;51.064;6.346;2023-05-18T00:10:05;10.40;99.90
5218;DHT22;26539;51.064;6.346;2023-05-18T00:12:31;10.40;99.90
5218;DHT22;26539;51.064;6.346;2023-05-18T00:14:57;10.40;99.90
5218;DHT22;26539;51.064;6.346;2023-05-18T00:17:22;10.30;99.90
5218;DHT22;26539;51.064;6.346;2023-05-18T00:19:48;10.30;99.90
5218;DHT22;26539;51.064;6.346;2023-05-18T00:22:14;10.30;99.90
5218;DHT22;26539;51.064;6.346;2023-05-18T00:24:44;10.20;99.90
5218;DHT22;26539;51.064;6.346;2023-05-18T00:27:10;10.20;99.90
5218;DHT22;26539;51.064;6.346;2023-05-18T00:29:36;10.20;99.90
5218;DHT22;26539;51.064;6.346;2023-05-18T00:32:01;10.10;99.90
5218;DHT22;26539;51.064;6.346;2023-05-18T00:34:27;10.10;99.90
5218;DHT22;26539;51.064;6.346;2023-05-18T00:36:52;10.10;99.90
5218;DHT22;26539;51.064;6.346;2023-05-18T00:39:18;10.00;99.90
5218;DHT22;26539;51.064;6.346;2023-05-18T00:41:44;10.00;99.90
5218;DHT22;26539;51.064;6.346;2023-05-18T00:44:09;10.00;99.90
5218;DHT22;26539;51.064;6.346;2023-05-18T00:46:35;10.00;99.90
5218;DHT22;26539;51.064;6.346;2023-05-18T00:49:01;10.00;99.90
5218;DHT22;26539;51.064;6.346;2023-05-18T00:51:27;9.90;99.90
5218;DHT22;26539;51.064;6.346;2023-05-18T00:53:54;9.90;99.90
5218;DHT22;26539;51.064;6.346;2023-05-18T00:56:21;9.90;99.90
5218;DHT22;26539;51.064;6.346;2023-05-18T00:58:54;9.90;99.90
5218;DHT22;26539;51.064;6.346;2023-05-18T01:01:27;9.90;99.90
5218;DHT22;26539;51.064;6.346;2023-05-18T01:03:54;9.90;99.90
5218;DHT22;26539;51.064;6.346;2023-05-18T01:06:21;9.80;99.90
5218;DHT22;26539;51.064;6.346;2023-05-18T01:08:50;9.80;99.90
5218;DHT22;26539;51.064;6.346;2023-05-18T01:16:40;9.70;99.90
5218;DHT22;26539;51.064;6.346;2023-05-18T01:19:34;9.60;99.90
5218;DHT22;26539;51.064;6.346;2023-05-18T01:24:48;9.50;99.90
5218;DHT22;26539;51.064;6.346;2023-05-18T01:27:16;9.40;99.90
5218;DHT22;26539;51.064;6.346;2023-05-18T01:29:43;9.40;99.90
5218;DHT22;26539;51.064;6.346;2023-05-18T01:32:20;9.40;99.90
5218;DHT22;26539;51.064;6.346;2023-05-18T01:34:47;9.30;99.90
5218;DHT22;26539;51.064;6.346;2023-05-18T01:37:13;9.30;99.90
5218;DHT22;26539;51.064;6.346;2023-05-18T01:39:39;9.30;99.90
5218;DHT22;26539;51.064;6.346;2023-05-18T01:42:08;9.30;99.90
5218;DHT22;26539;51.064;6.346;2023-05-18T01:44:42;9.30;99.90
5218;DHT22;26539;51.064;6.346;2023-05-18T01:47:14;9.20;99.90
5218;DHT22;26539;51.064;6.346;2023-05-18T01:49:48;9.10;99.90
5218;DHT22;26539;51.064;6.346;2023-05-18T01:52:24;9.10;99.90
5218;DHT22;26539;51.064;6.346;2023-05-18T01:54:55;9.00;99.90
5218;DHT22;26539;51.064;6.346;2023-05-18T01:57:24;9.00;99.90
5218;DHT22;26539;51.064;6.346;2023-05-18T01:59:51;9.00;99.90
5218;DHT22;26539;51.064;6.346;2023-05-18T02:02:18;8.90;99.90
5218;DHT22;26539;51.064;6.346;2023-05-18T02:04:44;8.90;99.90
5218;DHT22;26539;51.064;6.346;2023-05-18T02:07:10;8.90;99.90
5218;DHT22;26539;51.064;6.346;2023-05-18T02:09:36;8.90;99.90
5218;DHT22;26539;51.064;6.346;2023-05-18T02:12:01;8.90;99.90
5218;DHT22;26539;51.064;6.346;2023-05-18T02:14:27;8.90;99.90
5218;DHT22;26539;51.064;6.346;2023-05-18T02:16:52;8.80;99.90
5218;DHT22;26539;51.064;6.346;2023-05-18T02:19:21;8.80;99.90
5218;DHT22;26539;51.064;6.346;2023-05-18T02:21:47;8.80;99.90
5218;DHT22;26539;51.064;6.346;2023-05-18T02:24:12;8.80;99.90
5218;DHT22;26539;51.064;6.346;2023-05-18T02:26:38;8.70;99.90
5218;DHT22;26539;51.064;6.346;2023-05-18T02:29:05;8.70;99.90
5218;DHT22;26539;51.064;6.346;2023-05-18T02:31:30;8.70;99.90
5218;DHT22;26539;51.064;6.346;2023-05-18T02:33:56;8.70;99.90
5218;DHT22;26539;51.064;6.346;2023-05-18T02:36:22;8.70;99.90
5218;DHT22;26539;51.064;6.346;2023-05-18T02:38:48;8.70;99.90
5218;DHT22;26539;51.064;6.346;2023-05-18T02:41:14;8.60;99.90
5218;DHT22;26539;51.064;6.346;2023-05-18T02:43:39;8.60;99.90
5218;DHT22;26539;51.064;6.346;2023-05-18T02:46:05;8.60;99.90
5218;DHT22;26539;51.064;6.346;2023-05-18T02:48:30;8.50;99.90
5218;DHT22;26539;51.064;6.346;2023-05-18T02:50:56;8.50;99.90
5218;DHT22;26539;51.064;6.346;2023-05-18T02:53:23;8.50;99.90
5218;DHT22;26539;51.064;6.346;2023-05-18T02:55:48;8.50;99.90
5218;DHT22;26539;51.064;6.346;2023-05-18T02:58:14;8.40;99.90
5218;DHT22;26539;51.064;6.346;2023-05-18T03:00:40;8.40;99.90
5218;DHT22;26539;51.064;6.346;2023-05-18T03:03:06;8.40;99.90
5218;DHT22;26539;51.064;6.346;2023-05-18T03:05:36;8.40;99.90
5218;DHT22;26539;51.064;6.346;2023-05-18T03:08:02;8.40;99.90
5218;DHT22;26539;51.064;6.346;2023-05-18T03:10:27;8.30;99.90
5218;DHT22;26539;51.064;6.346;2023-05-18T03:12:53;8.30;99.90
5218;DHT22;26539;51.064;6.346;2023-05-18T03:15:18;8.20;1.00
5218;DHT22;26539;51.064;6.346;2023-05-18T03:17:44;8.20;1.00
5218;DHT22;26539;51.064;6.346;2023-05-18T03:20:11;8.20;1.00
5218;DHT22;26539;51.064;6.346;2023-05-18T03:22:38;8.10;1.00
5218;DHT22;26539;51.064;6.346;2023-05-18T03:25:04;8.10;1.00
5218;DHT22;26539;51.064;6.346;2023-05-18T03:27:30;8.10;1.00
5218;DHT22;26539;51.064;6.346;2023-05-18T03:29:56;8.10;1.00
5218;DHT22;26539;51.064;6.346;2023-05-18T03:32:22;8.00;1.00
5218;DHT22;26539;51.064;6.346;2023-05-18T03:34:49;8.00;1.00
5218;DHT22;26539;51.064;6.346;2023-05-18T03:37:16;7.90;1.00
5218;DHT22;26539;51.064;6.346;2023-05-18T03:39:42;7.90;1.00
5218;DHT22;26539;51.064;6.346;2023-05-18T03:42:07;8.00;1.00
5218;DHT22;26539;51.064;6.346;2023-05-18T03:44:33;8.00;1.00
5218;DHT22;26539;51.064;6.346;2023-05-18T03:46:59;8.00;1.00
5218;DHT22;26539;51.064;6.346;2023-05-18T03:49:24;8.00;1.00
5218;DHT22;26539;51.064;6.346;2023-05-18T03:51:50;8.00;1.00
5218;DHT22;26539;51.064;6.346;2023-05-18T03:54:18;8.00;1.00
5218;DHT22;26539;51.064;6.346;2023-05-18T03:56:45;8.00;1.00
5218;DHT22;26539;51.064;6.346;2023-05-18T03:59:11;8.00;1.00
5218;DHT22;26539;51.064;6.346;2023-05-18T04:01:36;8.10;1.00
5218;DHT22;26539;51.064;6.346;2023-05-18T04:04:02;8.10;1.00
5218;DHT22;26539;51.064;6.346;2023-05-18T04:06:28;8.10;1.00
5218;DHT22;26539;51.064;6.346;2023-05-18T04:08:54;8.20;1.00
5218;DHT22;26539;51.064;6.346;2023-05-18T04:11:20;8.20;1.00
5218;DHT22;26539;51.064;6.346;2023-05-18T04:13:47;8.30;1.00
5218;DHT22;26539;51.064;6.346;2023-05-18T04:16:14;8.40;1.00
5218;DHT22;26539;51.064;6.346;2023-05-18T04:18:40;8.50;1.00
5218;DHT22;26539;51.064;6.346;2023-05-18T04:21:06;8.60;1.00
5218;DHT22;26539;51.064;6.346;2023-05-18T04:23:32;8.70;1.00
5218;DHT22;26539;51.064;6.346;2023-05-18T04:26:03;8.80;1.00
5218;DHT22;26539;51.064;6.346;2023-05-18T04:28:30;8.80;1.00
5218;DHT22;26539;51.064;6.346;2023-05-18T04:30:55;8.90;1.00
5218;DHT22;26539;51.064;6.346;2023-05-18T04:33:21;9.10;1.00
5218;DHT22;26539;51.064;6.346;2023-05-18T04:35:46;9.10;1.00
5218;DHT22;26539;51.064;6.346;2023-05-18T04:38:12;9.20;1.00
5218;DHT22;26539;51.064;6.346;2023-05-18T04:40:39;9.40;1.00
5218;DHT22;26539;51.064;6.346;2023-05-18T04:43:06;9.50;99.90
5218;DHT22;26539;51.064;6.346;2023-05-18T04:45:32;9.60;99.90
5218;DHT22;26539;51.064;6.346;2023-05-18T04:47:58;9.70;99.90
5218;DHT22;26539;51.064;6.346;2023-05-18T04:50:23;9.90;99.90
5218;DHT22;26539;51.064;6.346;2023-05-18T04:52:50;10.00;99.90
5218;DHT22;26539;51.064;6.346;2023-05-18T04:55:17;10.10;99.90
5218;DHT22;26539;51.064;6.346;2023-05-18T04:57:48;10.20;99.90
5218;DHT22;26539;51.064;6.346;2023-05-18T05:00:15;10.30;99.90
5218;DHT22;26539;51.064;6.346;2023-05-18T05:02:41;10.30;99.90
5218;DHT22;26539;51.064;6.346;2023-05-18T05:05:07;10.50;99.90
5218;DHT22;26539;51.064;6.346;2023-05-18T05:07:32;10.60;99.90
5218;DHT22;26539;51.064;6.346;2023-05-18T05:09:58;10.70;99.90
5218;DHT22;26539;51.064;6.346;2023-05-18T05:12:23;10.90;99.90
5218;DHT22;26539;51.064;6.346;2023-05-18T05:14:49;11.00;99.90
5218;DHT22;26539;51.064;6.346;2023-05-18T05:17:15;11.20;99.90
5218;DHT22;26539;51.064;6.346;2023-05-18T05:19:41;11.30;99.90
5218;DHT22;26539;51.064;6.346;2023-05-18T05:22:06;11.40;99.90
5218;DHT22;26539;51.064;6.346;2023-05-18T05:24:32;11.50;99.90
5218;DHT22;26539;51.064;6.346;2023-05-18T05:26:57;11.60;99.90
5218;DHT22;26539;51.064;6.346;2023-05-18T05:29:23;11.80;99.90
5218;DHT22;26539;51.064;6.346;2023-05-18T05:31:50;11.90;99.90
5218;DHT22;26539;51.064;6.346;2023-05-18T05:34:16;12.00;99.90
5218;DHT22;26539;51.064;6.346;2023-05-18T05:36:41;12.20;99.90
5218;DHT22;26539;51.064;6.346;2023-05-18T05:39:07;12.30;99.90
5218;DHT22;26539;51.064;6.346;2023-05-18T05:41:33;12.50;99.90
5218;DHT22;26539;51.064;6.346;2023-05-18T05:43:58;12.60;99.90
5218;DHT22;26539;51.064;6.346;2023-05-18T05:46:24;12.90;99.90
5218;DHT22;26539;51.064;6.346;2023-05-18T05:48:49;13.40;99.90
5218;DHT22;26539;51.064;6.346;2023-05-18T05:51:15;14.80;99.90
5218;DHT22;26539;51.064;6.346;2023-05-18T05:53:41;18.10;99.90
5218;DHT22;26539;51.064;6.346;2023-05-18T05:56:07;20.70;99.90
5218;DHT22;26539;51.064;6.346;2023-05-18T05:58:33;22.70;99.90
5218;DHT22;26539;51.064;6.346;2023-05-18T06:00:58;24.50;99.90
5218;DHT22;26539;51.064;6.346;2023-05-18T06:03:24;26.50;99.90
5218;DHT22;26539;51.064;6.346;2023-05-18T06:05:50;28.70;99.90
5218;DHT22;26539;51.064;6.346;2023-05-18T06:08:16;30.60;99.90
5218;DHT22;26539;51.064;6.346;2023-05-18T06:10:41;32.10;99.90
5218;DHT22;26539;51.064;6.346;2023-05-18T06:13:07;33.50;99.90
5218;DHT22;26539;51.064;6.346;2023-05-18T06:15:33;34.50;99.90
5218;DHT22;26539;51.064;6.346;2023-05-18T06:17:58;35.60;99.90
5218;DHT22;26539;51.064;6.346;2023-05-18T06:20:24;36.50;99.90
5218;DHT22;26539;51.064;6.346;2023-05-18T06:22:50;37.10;99.90
5218;DHT22;26539;51.064;6.346;2023-05-18T06:25:16;37.90;99.90
5218;DHT22;26539;51.064;6.346;2023-05-18T06:27:42;38.80;99.90
5218;DHT22;26539;51.064;6.346;2023-05-18T06:30:09;40.00;99.90
5218;DHT22;26539;51.064;6.346;2023-05-18T06:32:35;41.40;99.90
5218;DHT22;26539;51.064;6.346;2023-05-18T06:35:02;42.60;99.90
5218;DHT22;26539;51.064;6.346;2023-05-18T06:37:28;43.80;99.90
5218;DHT22;26539;51.064;6.346;2023-05-18T06:39:54;44.80;98.50
5218;DHT22;26539;51.064;6.346;2023-05-18T06:42:19;45.30;93.70
5218;DHT22;26539;51.064;6.346;2023-05-18T06:44:45;46.00;90.70
5218;DHT22;26539;51.064;6.346;2023-05-18T06:47:11;47.00;86.70
5218;DHT22;26539;51.064;6.346;2023-05-18T06:49:36;48.10;80.40
5218;DHT22;26539;51.064;6.346;2023-05-18T06:52:02;49.20;77.10
5218;DHT22;26539;51.064;6.346;2023-05-18T06:54:28;50.10;71.90
5218;DHT22;26539;51.064;6.346;2023-05-18T06:56:54;50.90;67.00
5218;DHT22;26539;51.064;6.346;2023-05-18T06:59:20;51.40;61.60
5218;DHT22;26539;51.064;6.346;2023-05-18T07:01:46;51.80;57.20
5218;DHT22;26539;51.064;6.346;2023-05-18T07:04:12;52.30;53.90
5218;DHT22;26539;51.064;6.346;2023-05-18T07:06:37;52.30;49.60
5218;DHT22;26539;51.064;6.346;2023-05-18T07:09:03;51.90;45.80
5218;DHT22;26539;51.064;6.346;2023-05-18T07:11:29;51.30;40.90
5218;DHT22;26539;51.064;6.346;2023-05-18T07:13:54;50.60;38.00
5218;DHT22;26539;51.064;6.346;2023-05-18T07:16:20;50.60;36.30
5218;DHT22;26539;51.064;6.346;2023-05-18T07:18:45;50.70;34.80
5218;DHT22;26539;51.064;6.346;2023-05-18T07:21:11;51.30;34.80
5218;DHT22;26539;51.064;6.346;2023-05-18T07:23:37;51.30;32.10
5218;DHT22;26539;51.064;6.346;2023-05-18T07:26:02;51.20;30.80
5218;DHT22;26539;51.064;6.346;2023-05-18T07:28:28;51.00;28.90
5218;DHT22;26539;51.064;6.346;2023-05-18T07:30:53;50.50;27.10
5218;DHT22;26539;51.064;6.346;2023-05-18T07:33:19;50.80;27.40
5218;DHT22;26539;51.064;6.346;2023-05-18T07:35:44;50.70;26.20
5218;DHT22;26539;51.064;6.346;2023-05-18T07:38:10;50.00;23.80
5218;DHT22;26539;51.064;6.346;2023-05-18T07:40:35;49.20;22.40
5218;DHT22;26539;51.064;6.346;2023-05-18T07:43:01;48.60;21.70
5218;DHT22;26539;51.064;6.346;2023-05-18T07:45:26;48.30;21.00
5218;DHT22;26539;51.064;6.346;2023-05-18T07:47:53;48.70;21.10
5218;DHT22;26539;51.064;6.346;2023-05-18T07:50:19;48.60;20.90
5218;DHT22;26539;51.064;6.346;2023-05-18T07:52:44;48.30;19.80
5218;DHT22;26539;51.064;6.346;2023-05-18T07:55:10;48.60;20.00
5218;DHT22;26539;51.064;6.346;2023-05-18T07:57:35;49.40;21.90
5218;DHT22;26539;51.064;6.346;2023-05-18T08:00:02;50.30;22.60
5218;DHT22;26539;51.064;6.346;2023-05-18T08:02:29;50.80;23.20
5218;DHT22;26539;51.064;6.346;2023-05-18T08:04:54;51.00;23.20
5218;DHT22;26539;51.064;6.346;2023-05-18T08:07:20;51.30;23.20
5218;DHT22;26539;51.064;6.346;2023-05-18T08:09:45;51.70;23.30
5218;DHT22;26539;51.064;6.346;2023-05-18T08:12:11;52.00;22.90
5218;DHT22;26539;51.064;6.346;2023-05-18T08:14:36;51.80;21.90
5218;DHT22;26539;51.064;6.346;2023-05-18T08:17:03;51.70;21.70
5218;DHT22;26539;51.064;6.346;2023-05-18T08:19:28;50.60;19.20
5218;DHT22;26539;51.064;6.346;2023-05-18T08:21:54;50.70;19.00
5218;DHT22;26539;51.064;6.346;2023-05-18T08:24:19;50.20;17.40
5218;DHT22;26539;51.064;6.346;2023-05-18T08:26:45;50.80;19.00
5218;DHT22;26539;51.064;6.346;2023-05-18T08:29:10;51.10;19.20
5218;DHT22;26539;51.064;6.346;2023-05-18T08:31:37;50.80;18.00
5218;DHT22;26539;51.064;6.346;2023-05-18T08:34:06;50.80;17.70
5218;DHT22;26539;51.064;6.346;2023-05-18T08:36:33;50.40;16.50
5218;DHT22;26539;51.064;6.346;2023-05-18T08:38:59;50.10;15.00
5218;DHT22;26539;51.064;6.346;2023-05-18T08:44:07;47.00;9.20
5218;DHT22;26539;51.064;6.346;2023-05-18T08:46:39;42.70;2.80
5218;DHT22;26539;51.064;6.346;2023-05-18T08:49:05;38.80;1.00
5218;DHT22;26539;51.064;6.346;2023-05-18T08:51:35;40.20;1.60
5218;DHT22;26539;51.064;6.346;2023-05-18T08:54:05;40.00;1.60
5218;DHT22;26539;51.064;6.346;2023-05-18T08:56:32;38.80;1.00
5218;DHT22;26539;51.064;6.346;2023-05-18T08:58:58;40.00;2.70
5218;DHT22;26539;51.064;6.346;2023-05-18T09:01:27;41.40;5.60
5218;DHT22;26539;51.064;6.346;2023-05-18T09:03:55;41.70;6.30
5218;DHT22;26539;51.064;6.346;2023-05-18T09:06:22;42.00;7.50
5218;DHT22;26539;51.064;6.346;2023-05-18T09:08:53;42.80;9.30
5218;DHT22;26539;51.064;6.346;2023-05-18T09:11:21;43.00;9.30
5218;DHT22;26539;51.064;6.346;2023-05-18T09:13:48;43.50;10.50
5218;DHT22;26539;51.064;6.346;2023-05-18T09:16:14;44.10;11.60
5218;DHT22;26539;51.064;6.346;2023-05-18T09:18:39;44.30;11.30
5218;DHT22;26539;51.064;6.346;2023-05-18T09:21:05;44.40;11.50
5218;DHT22;26539;51.064;6.346;2023-05-18T09:23:32;44.70;11.80
5218;DHT22;26539;51.064;6.346;2023-05-18T09:25:58;44.60;11.60
5218;DHT22;26539;51.064;6.346;2023-05-18T09:28:45;45.10;12.50
5218;DHT22;26539;51.064;6.346;2023-05-18T09:31:17;45.80;13.20
5218;DHT22;26539;51.064;6.346;2023-05-18T09:33:44;45.30;12.10
5218;DHT22;26539;51.064;6.346;2023-05-18T09:36:10;44.50;10.30
5218;DHT22;26539;51.064;6.346;2023-05-18T09:38:46;44.40;10.00
5218;DHT22;26539;51.064;6.346;2023-05-18T09:41:14;44.40;9.50
5218;DHT22;26539;51.064;6.346;2023-05-18T09:43:41;44.00;8.50
5218;DHT22;26539;51.064;6.346;2023-05-18T09:46:09;41.80;4.40
5218;DHT22;26539;51.064;6.346;2023-05-18T09:48:36;39.20;1.00
5218;DHT22;26539;51.064;6.346;2023-05-18T09:51:04;39.00;1.00
5218;DHT22;26539;51.064;6.346;2023-05-18T09:53:31;39.60;3.10
5218;DHT22;26539;51.064;6.346;2023-05-18T09:56:02;40.50;5.10
5218;DHT22;26539;51.064;6.346;2023-05-18T09:58:31;40.90;5.20
5218;DHT22;26539;51.064;6.346;2023-05-18T10:00:59;41.40;6.50
5218;DHT22;26539;51.064;6.346;2023-05-18T10:03:31;41.30;16.10
5218;DHT22;26539;51.064;6.346;2023-05-18T10:06:02;41.00;6.30
5218;DHT22;26539;51.064;6.346;2023-05-18T10:08:27;40.70;5.70
5218;DHT22;26539;51.064;6.346;2023-05-18T10:10:53;40.20;5.00
5218;DHT22;26539;51.064;6.346;2023-05-18T10:13:19;40.50;6.20
5218;DHT22;26539;51.064;6.346;2023-05-18T10:15:55;40.60;5.80
5218;DHT22;26539;51.064;6.346;2023-05-18T10:18:23;40.80;6.30
5218;DHT22;26539;51.064;6.346;2023-05-18T10:20:50;41.30;7.30
5218;DHT22;26539;51.064;6.346;2023-05-18T10:23:17;41.90;8.70
5218;DHT22;26539;51.064;6.346;2023-05-18T10:25:45;41.90;9.00
5218;DHT22;26539;51.064;6.346;2023-05-18T10:28:10;41.00;6.30
5218;DHT22;26539;51.064;6.346;2023-05-18T10:30:39;40.70;6.60
5218;DHT22;26539;51.064;6.346;2023-05-18T10:33:06;40.30;5.50
5218;DHT22;26539;51.064;6.346;2023-05-18T10:35:32;39.60;4.30
5218;DHT22;26539;51.064;6.346;2023-05-18T10:37:58;38.60;2.20
5218;DHT22;26539;51.064;6.346;2023-05-18T10:40:26;38.10;1.70
5218;DHT22;26539;51.064;6.346;2023-05-18T10:42:52;38.20;2.50
5218;DHT22;26539;51.064;6.346;2023-05-18T10:45:20;38.30;3.10
5218;DHT22;26539;51.064;6.346;2023-05-18T10:47:47;38.60;4.00
5218;DHT22;26539;51.064;6.346;2023-05-18T10:50:16;37.40;1.60
5218;DHT22;26539;51.064;6.346;2023-05-18T10:52:41;37.40;2.60
5218;DHT22;26539;51.064;6.346;2023-05-18T10:55:09;36.70;1.60
5218;DHT22;26539;51.064;6.346;2023-05-18T10:57:41;35.20;1.00
5218;DHT22;26539;51.064;6.346;2023-05-18T11:00:08;35.30;1.00
5218;DHT22;26539;51.064;6.346;2023-05-18T11:02:38;35.20;1.00
5218;DHT22;26539;51.064;6.346;2023-05-18T11:05:07;35.40;1.00
5218;DHT22;26539;51.064;6.346;2023-05-18T11:07:33;35.70;2.50
5218;DHT22;26539;51.064;6.346;2023-05-18T11:10:00;35.60;11.90
5218;DHT22;26539;51.064;6.346;2023-05-18T11:12:26;35.40;1.70
5218;DHT22;26539;51.064;6.346;2023-05-18T11:14:53;35.30;1.70
5218;DHT22;26539;51.064;6.346;2023-05-18T11:17:23;35.40;2.70
5218;DHT22;26539;51.064;6.346;2023-05-18T11:23:00;35.50;3.40
5218;DHT22;26539;51.064;6.346;2023-05-18T11:27:53;35.50;4.40
5218;DHT22;26539;51.064;6.346;2023-05-18T11:33:27;35.70;5.20
5218;DHT22;26539;51.064;6.346;2023-05-18T11:38:48;35.20;4.20
5218;DHT22;26539;51.064;6.346;2023-05-18T11:41:32;35.40;5.10
5218;DHT22;26539;51.064;6.346;2023-05-18T11:44:14;35.20;4.30
5218;DHT22;26539;51.064;6.346;2023-05-18T11:46:54;35.00;4.70
5218;DHT22;26539;51.064;6.346;2023-05-18T11:49:22;34.70;3.80
5218;DHT22;26539;51.064;6.346;2023-05-18T11:54:43;35.30;5.60
5218;DHT22;26539;51.064;6.346;2023-05-18T11:57:09;35.30;6.00
5218;DHT22;26539;51.064;6.346;2023-05-18T11:59:40;35.10;5.30
5218;DHT22;26539;51.064;6.346;2023-05-18T12:02:08;35.10;5.60
5218;DHT22;26539;51.064;6.346;2023-05-18T12:04:44;34.00;4.00
5218;DHT22;26539;51.064;6.346;2023-05-18T12:07:11;33.80;3.30
5218;DHT22;26539;51.064;6.346;2023-05-18T12:09:39;34.00;7.90
5218;DHT22;26539;51.064;6.346;2023-05-18T12:12:06;34.30;4.70
5218;DHT22;26539;51.064;6.346;2023-05-18T12:14:33;34.20;4.70
5218;DHT22;26539;51.064;6.346;2023-05-18T12:17:00;34.30;5.20
5218;DHT22;26539;51.064;6.346;2023-05-18T12:19:26;34.10;5.00
5218;DHT22;26539;51.064;6.346;2023-05-18T12:21:52;33.60;4.30
5218;DHT22;26539;51.064;6.346;2023-05-18T12:24:18;33.10;3.20
5218;DHT22;26539;51.064;6.346;2023-05-18T12:26:43;32.50;2.90
5218;DHT22;26539;51.064;6.346;2023-05-18T12:29:11;31.90;2.20
5218;DHT22;26539;51.064;6.346;2023-05-18T12:31:39;31.60;2.10
5218;DHT22;26539;51.064;6.346;2023-05-18T12:34:08;31.80;3.10
5218;DHT22;26539;51.064;6.346;2023-05-18T12:36:41;32.00;4.10
5218;DHT22;26539;51.064;6.346;2023-05-18T12:39:07;32.10;4.00
5218;DHT22;26539;51.064;6.346;2023-05-18T12:41:33;32.30;4.90
5218;DHT22;26539;51.064;6.346;2023-05-18T12:43:58;32.10;5.10
5218;DHT22;26539;51.064;6.346;2023-05-18T12:46:24;32.10;5.50
5218;DHT22;26539;51.064;6.346;2023-05-18T12:48:57;32.10;5.40
5218;DHT22;26539;51.064;6.346;2023-05-18T12:51:31;32.10;5.20
5218;DHT22;26539;51.064;6.346;2023-05-18T12:53:56;32.20;5.70
5218;DHT22;26539;51.064;6.346;2023-05-18T12:56:22;32.20;6.30
5218;DHT22;26539;51.064;6.346;2023-05-18T12:58:59;32.30;6.60
5218;DHT22;26539;51.064;6.346;2023-05-18T13:01:27;31.90;5.70
5218;DHT22;26539;51.064;6.346;2023-05-18T13:03:57;31.50;5.30
5218;DHT22;26539;51.064;6.346;2023-05-18T13:06:23;31.10;5.60
5218;DHT22;26539;51.064;6.346;2023-05-18T13:08:48;30.90;4.80
5218;DHT22;26539;51.064;6.346;2023-05-18T13:11:17;30.70;5.00
5218;DHT22;26539;51.064;6.346;2023-05-18T13:14:02;30.70;5.00
5218;DHT22;26539;51.064;6.346;2023-05-18T13:16:28;30.80;5.80
5218;DHT22;26539;51.064;6.346;2023-05-18T13:18:55;30.90;5.90
5218;DHT22;26539;51.064;6.346;2023-05-18T13:21:21;30.80;6.80
5218;DHT22;26539;51.064;6.346;2023-05-18T13:23:46;30.40;5.80
5218;DHT22;26539;51.064;6.346;2023-05-18T13:26:12;30.30;5.90
5218;DHT22;26539;51.064;6.346;2023-05-18T13:28:38;30.30;5.90
5218;DHT22;26539;51.064;6.346;2023-05-18T13:31:04;30.20;6.40
5218;DHT22;26539;51.064;6.346;2023-05-18T13:33:29;30.20;6.00
5218;DHT22;26539;51.064;6.346;2023-05-18T13:35:55;29.90;6.50
5218;DHT22;26539;51.064;6.346;2023-05-18T13:38:20;29.40;5.20
5218;DHT22;26539;51.064;6.346;2023-05-18T13:40:46;29.20;6.30
5218;DHT22;26539;51.064;6.346;2023-05-18T13:43:11;29.20;6.30
5218;DHT22;26539;51.064;6.346;2023-05-18T13:45:38;29.30;6.50
5218;DHT22;26539;51.064;6.346;2023-05-18T13:48:03;29.20;6.40
5218;DHT22;26539;51.064;6.346;2023-05-18T13:50:31;28.90;6.30
5218;DHT22;26539;51.064;6.346;2023-05-18T13:52:57;28.30;5.90
5218;DHT22;26539;51.064;6.346;2023-05-18T13:55:23;27.90;5.10
5218;DHT22;26539;51.064;6.346;2023-05-18T13:57:48;27.60;5.00
5218;DHT22;26539;51.064;6.346;2023-05-18T14:00:14;27.50;5.60
5218;DHT22;26539;51.064;6.346;2023-05-18T14:02:42;27.40;5.10
5218;DHT22;26539;51.064;6.346;2023-05-18T14:05:11;27.10;5.40
5218;DHT22;26539;51.064;6.346;2023-05-18T14:07:38;26.70;4.40
5218;DHT22;26539;51.064;6.346;2023-05-18T14:10:04;26.50;5.20
5218;DHT22;26539;51.064;6.346;2023-05-18T14:12:30;26.30;5.20
5218;DHT22;26539;51.064;6.346;2023-05-18T14:14:57;26.10;5.20
5218;DHT22;26539;51.064;6.346;2023-05-18T14:17:22;25.90;5.30
5218;DHT22;26539;51.064;6.346;2023-05-18T14:19:48;25.70;5.30
5218;DHT22;26539;51.064;6.346;2023-05-18T14:22:13;25.30;4.30
5218;DHT22;26539;51.064;6.346;2023-05-18T14:24:41;25.00;4.10
5218;DHT22;26539;51.064;6.346;2023-05-18T14:27:06;24.50;4.50
5218;DHT22;26539;51.064;6.346;2023-05-18T14:29:32;24.40;4.00
5218;DHT22;26539;51.064;6.346;2023-05-18T14:31:58;24.40;4.40
5218;DHT22;26539;51.064;6.346;2023-05-18T14:34:24;24.50;5.40
5218;DHT22;26539;51.064;6.346;2023-05-18T14:36:49;24.60;6.70
5218;DHT22;26539;51.064;6.346;2023-05-18T14:39:15;24.80;7.40
5218;DHT22;26539;51.064;6.346;2023-05-18T14:41:41;24.80;8.20
5218;DHT22;26539;51.064;6.346;2023-05-18T14:44:06;24.80;9.00
5218;DHT22;26539;51.064;6.346;2023-05-18T14:46:34;24.90;9.70
5218;DHT22;26539;51.064;6.346;2023-05-18T14:49:00;24.80;9.60
5218;DHT22;26539;51.064;6.346;2023-05-18T14:51:26;24.70;9.50
5218;DHT22;26539;51.064;6.346;2023-05-18T14:53:51;24.60;9.80
5218;DHT22;26539;51.064;6.346;2023-05-18T14:56:17;24.60;10.40
5218;DHT22;26539;51.064;6.346;2023-05-18T14:58:42;24.70;10.90
5218;DHT22;26539;51.064;6.346;2023-05-18T15:01:08;24.70;11.10
5218;DHT22;26539;51.064;6.346;2023-05-18T15:03:33;24.50;11.00
5218;DHT22;26539;51.064;6.346;2023-05-18T15:05:59;24.10;10.90
5218;DHT22;26539;51.064;6.346;2023-05-18T15:08:25;23.80;10.30
5218;DHT22;26539;51.064;6.346;2023-05-18T15:10:50;23.60;10.20
5218;DHT22;26539;51.064;6.346;2023-05-18T15:13:16;23.50;10.40
5218;DHT22;26539;51.064;6.346;2023-05-18T15:15:42;23.60;11.10
5218;DHT22;26539;51.064;6.346;2023-05-18T15:18:08;23.40;10.70
5218;DHT22;26539;51.064;6.346;2023-05-18T15:20:33;23.20;10.60
5218;DHT22;26539;51.064;6.346;2023-05-18T15:22:59;23.10;10.70
5218;DHT22;26539;51.064;6.346;2023-05-18T15:25:25;23.00;11.00
5218;DHT22;26539;51.064;6.346;2023-05-18T15:27:51;23.10;11.30
5218;DHT22;26539;51.064;6.346;2023-05-18T15:30:18;23.30;11.90
5218;DHT22;26539;51.064;6.346;2023-05-18T15:32:43;23.40;13.20
5218;DHT22;26539;51.064;6.346;2023-05-18T15:35:09;23.60;14.10
5218;DHT22;26539;51.064;6.346;2023-05-18T15:37:35;23.60;14.50
5218;DHT22;26539;51.064;6.346;2023-05-18T15:40:00;23.60;14.80
5218;DHT22;26539;51.064;6.346;2023-05-18T15:42:26;23.50;14.60
5218;DHT22;26539;51.064;6.346;2023-05-18T15:44:51;23.40;14.30
5218;DHT22;26539;51.064;6.346;2023-05-18T15:47:17;23.30;14.70
5218;DHT22;26539;51.064;6.346;2023-05-18T15:49:42;23.20;14.10
5218;DHT22;26539;51.064;6.346;2023-05-18T15:52:08;23.00;13.90
5218;DHT22;26539;51.064;6.346;2023-05-18T15:54:34;22.80;14.30
5218;DHT22;26539;51.064;6.346;2023-05-18T15:57:00;22.90;14.80
5218;DHT22;26539;51.064;6.346;2023-05-18T15:59:26;22.80;14.90
5218;DHT22;26539;51.064;6.346;2023-05-18T16:01:52;22.60;14.80
5218;DHT22;26539;51.064;6.346;2023-05-18T16:04:17;22.60;15.60
5218;DHT22;26539;51.064;6.346;2023-05-18T16:06:43;22.50;16.00
5218;DHT22;26539;51.064;6.346;2023-05-18T16:09:08;22.50;16.00
5218;DHT22;26539;51.064;6.346;2023-05-18T16:11:34;22.50;15.30
5218;DHT22;26539;51.064;6.346;2023-05-18T16:14:00;22.60;15.90
5218;DHT22;26539;51.064;6.346;2023-05-18T16:16:26;22.60;16.10
5218;DHT22;26539;51.064;6.346;2023-05-18T16:18:52;22.40;16.10